createdAt,value
2022-11-17T00:01:32.106Z,6.01
2022-11-17T00:04:34.903Z,5.96
2022-11-17T00:07:39.090Z,6.00
2022-11-17T00:10:41.784Z,6.10
2022-11-17T00:14:02.438Z,6.08
2022-11-17T00:17:06.945Z,6.15
2022-11-17T00:20:28.442Z,6.27
2022-11-17T00:23:46.434Z,6.29
2022-11-17T00:27:02.559Z,6.27
2022-11-17T00:30:05.677Z,6.17
2022-11-17T00:33:27.070Z,6.27
2022-11-17T00:36:29.732Z,6.29
2022-11-17T00:39:34.164Z,6.16
2022-11-17T00:42:36.908Z,6.29
2022-11-17T00:45:39.600Z,6.24
2022-11-17T00:48:42.380Z,6.25
2022-11-17T00:51:45.321Z,6.11
2022-11-17T00:54:49.367Z,6.05
2022-11-17T00:57:52.173Z,5.90
2022-11-17T01:00:54.898Z,5.79
2022-11-17T01:04:04.151Z,5.70
2022-11-17T01:07:07.128Z,5.82
2022-11-17T01:10:11.597Z,5.65
2022-11-17T01:13:14.312Z,5.61
2022-11-17T01:16:18.004Z,5.70
2022-11-17T01:19:21.076Z,5.72
2022-11-17T01:22:23.923Z,5.50
2022-11-17T01:25:27.964Z,5.33
2022-11-17T01:28:30.612Z,5.32
2022-11-17T01:31:34.703Z,5.39
2022-11-17T01:34:37.403Z,5.33
2022-11-17T01:37:40.123Z,5.30
2022-11-17T01:40:44.220Z,5.31
2022-11-17T01:43:47.844Z,5.21
2022-11-17T01:46:50.518Z,5.14
2022-11-17T01:49:57.325Z,5.22
2022-11-17T01:53:02.170Z,5.18
2022-11-17T01:56:09.476Z,5.23
2022-11-17T01:59:17.813Z,5.15
2022-11-17T02:02:20.754Z,4.93
2022-11-17T02:05:33.905Z,4.61
2022-11-17T02:08:38.522Z,4.58
2022-11-17T02:11:42.851Z,4.69
2022-11-17T02:14:45.850Z,4.64
2022-11-17T02:17:48.632Z,4.61
2022-11-17T02:20:54.604Z,4.46
2022-11-17T02:24:13.673Z,4.35
2022-11-17T02:27:31.191Z,4.44
2022-11-17T02:30:39.164Z,4.50
2022-11-17T02:33:47.563Z,4.46
2022-11-17T02:36:56.141Z,4.32
2022-11-17T02:40:01.598Z,4.20
2022-11-17T02:43:24.825Z,4.18
2022-11-17T02:46:30.239Z,4.01
2022-11-17T02:49:36.177Z,4.18
2022-11-17T02:52:38.881Z,4.33
2022-11-17T02:55:41.724Z,4.35
2022-11-17T02:58:44.448Z,4.22
2022-11-17T03:02:07.918Z,4.23
2022-11-17T03:05:15.401Z,4.17
2022-11-17T03:08:27.540Z,4.14
2022-11-17T03:11:40.659Z,4.25
2022-11-17T03:14:47.163Z,4.17
2022-11-17T03:17:53.481Z,4.01
2022-11-17T03:21:00.590Z,4.08
2022-11-17T03:24:06.563Z,4.09
2022-11-17T03:27:11.138Z,4.14
2022-11-17T03:30:14.978Z,4.13
2022-11-17T03:33:19.428Z,4.24
2022-11-17T03:36:25.520Z,4.16
2022-11-17T03:39:30.972Z,4.11
2022-11-17T03:42:35.841Z,4.12
2022-11-17T03:45:41.157Z,4.20
2022-11-17T03:48:46.843Z,4.36
2022-11-17T03:51:51.581Z,4.44
2022-11-17T03:54:54.793Z,4.41
2022-11-17T03:58:00.812Z,4.35
2022-11-17T04:01:05.078Z,4.24
2022-11-17T04:04:07.808Z,4.28
2022-11-17T04:07:11.909Z,4.39
2022-11-17T04:10:15.874Z,4.32
2022-11-17T04:13:36.265Z,4.26
2022-11-17T04:16:39.144Z,4.28
2022-11-17T04:19:41.880Z,4.33
2022-11-17T04:22:45.913Z,4.26
2022-11-17T04:26:07.565Z,4.28
2022-11-17T04:29:10.323Z,4.24
2022-11-17T04:32:12.982Z,4.29
2022-11-17T04:35:15.645Z,4.28
2022-11-17T04:38:19.960Z,4.29
2022-11-17T04:41:41.815Z,4.31
2022-11-17T04:44:44.592Z,4.38
2022-11-17T04:47:47.699Z,4.41
2022-11-17T04:50:53.927Z,4.39
2022-11-17T04:53:58.087Z,4.42
2022-11-17T04:57:00.815Z,4.41
2022-11-17T05:00:03.852Z,4.37
2022-11-17T05:03:06.595Z,4.43
2022-11-17T05:06:09.352Z,4.48
2022-11-17T05:09:14.611Z,4.53
2022-11-17T05:12:40.121Z,4.52
2022-11-17T05:16:00.344Z,4.49
2022-11-17T05:19:03.061Z,4.52
2022-11-17T05:22:26.368Z,4.53
2022-11-17T05:25:29.443Z,4.52
2022-11-17T05:28:32.339Z,4.51
2022-11-17T05:31:35.485Z,4.53
2022-11-17T05:34:38.134Z,4.49
2022-11-17T05:37:40.810Z,4.48
2022-11-17T05:40:44.799Z,4.47
2022-11-17T05:43:47.484Z,4.45
2022-11-17T05:46:50.220Z,4.26
2022-11-17T05:49:52.906Z,4.31
2022-11-17T05:52:55.617Z,4.37
2022-11-17T05:56:13.119Z,4.40
2022-11-17T05:59:26.363Z,4.40
2022-11-17T06:02:32.597Z,4.35
2022-11-17T06:05:35.518Z,4.39
2022-11-17T06:08:38.406Z,4.42
2022-11-17T06:11:41.063Z,4.42
2022-11-17T06:14:45.202Z,4.40
2022-11-17T06:17:49.890Z,4.40
2022-11-17T06:20:53.871Z,4.39
2022-11-17T06:23:56.609Z,4.41
2022-11-17T06:26:59.349Z,4.46
2022-11-17T06:30:06.080Z,4.52
2022-11-17T06:33:09.804Z,4.56
2022-11-17T06:36:12.634Z,4.61
2022-11-17T06:39:15.344Z,4.64
2022-11-17T06:42:18.046Z,4.69
2022-11-17T06:45:22.100Z,4.72
2022-11-17T06:48:27.214Z,4.78
2022-11-17T06:51:29.992Z,4.82
2022-11-17T06:54:32.843Z,4.86
2022-11-17T06:57:36.003Z,4.88
2022-11-17T07:00:40.184Z,4.95
2022-11-17T07:03:43.704Z,4.98
2022-11-17T07:06:46.643Z,4.99
2022-11-17T07:09:49.333Z,5.03
2022-11-17T07:12:52.043Z,5.04
2022-11-17T07:15:56.027Z,5.08
2022-11-17T07:18:59.407Z,5.15
2022-11-17T07:22:02.124Z,5.22
2022-11-17T07:25:05.079Z,5.27
2022-11-17T07:28:07.889Z,5.36
2022-11-17T07:31:11.919Z,5.39
2022-11-17T07:34:14.683Z,5.43
2022-11-17T07:37:17.457Z,5.43
2022-11-17T07:40:20.071Z,5.50
2022-11-17T07:43:22.752Z,5.52
2022-11-17T07:46:26.762Z,5.53
2022-11-17T07:49:29.834Z,5.62
2022-11-17T07:52:35.022Z,5.64
2022-11-17T07:55:41.427Z,5.62
2022-11-17T07:58:44.182Z,5.68
2022-11-17T08:01:48.450Z,5.71
2022-11-17T08:04:51.236Z,5.74
2022-11-17T08:07:55.861Z,5.82
2022-11-17T08:11:02.562Z,5.91
2022-11-17T08:14:05.295Z,5.96
2022-11-17T08:17:09.345Z,6.00
2022-11-17T08:20:13.484Z,6.03
2022-11-17T08:23:16.364Z,6.07
2022-11-17T08:26:19.294Z,6.08
2022-11-17T08:29:22.143Z,6.11
2022-11-17T08:32:26.160Z,6.12
2022-11-17T08:35:34.275Z,6.12
2022-11-17T08:38:39.847Z,6.14
2022-11-17T08:41:42.675Z,6.17
2022-11-17T08:44:45.601Z,6.19
2022-11-17T08:47:49.719Z,6.23
2022-11-17T08:50:52.780Z,6.23
2022-11-17T08:53:55.434Z,6.25
2022-11-17T08:56:58.791Z,6.26
2022-11-17T09:00:02.143Z,6.25
2022-11-17T09:03:08.065Z,6.25
2022-11-17T09:06:11.041Z,6.23
2022-11-17T09:09:13.768Z,6.22
2022-11-17T09:12:18.012Z,6.19
2022-11-17T09:15:22.139Z,6.18
2022-11-17T09:18:26.249Z,6.15
2022-11-17T09:21:29.066Z,6.14
2022-11-17T09:24:31.819Z,6.13
2022-11-17T09:27:34.824Z,6.13
2022-11-17T09:30:37.935Z,6.18
2022-11-17T09:33:42.320Z,6.20
2022-11-17T09:36:45.064Z,6.20
2022-11-17T09:39:47.732Z,6.22
2022-11-17T09:42:50.717Z,6.24
2022-11-17T09:45:56.088Z,6.28
2022-11-17T09:49:03.649Z,6.34
2022-11-17T09:52:12.665Z,6.38
2022-11-17T09:55:22.774Z,6.42
2022-11-17T09:58:31.501Z,6.48
2022-11-17T10:01:34.252Z,6.52
2022-11-17T10:04:38.436Z,6.55
2022-11-17T10:07:45.009Z,6.58
2022-11-17T10:10:49.139Z,6.61
2022-11-17T10:13:52.202Z,6.61
2022-11-17T10:16:55.918Z,6.63
2022-11-17T10:20:00.108Z,6.67
2022-11-17T10:23:03.876Z,6.76
2022-11-17T10:26:09.667Z,6.89
2022-11-17T10:29:13.661Z,6.96
2022-11-17T10:32:16.514Z,6.90
2022-11-17T10:35:21.427Z,6.85
2022-11-17T10:38:25.875Z,6.78
2022-11-17T10:41:34.265Z,6.79
2022-11-17T10:44:41.461Z,6.79
2022-11-17T10:47:44.380Z,6.85
2022-11-17T10:50:54.024Z,6.91
2022-11-17T10:54:03.947Z,6.96
2022-11-17T10:57:08.148Z,7.01
2022-11-17T11:00:22.805Z,7.10
2022-11-17T11:03:26.018Z,7.27
2022-11-17T11:06:31.807Z,7.37
2022-11-17T11:09:36.690Z,7.42
2022-11-17T11:12:43.637Z,7.53
2022-11-17T11:15:46.622Z,7.55
2022-11-17T11:18:50.087Z,7.61
2022-11-17T11:22:21.042Z,7.59
2022-11-17T11:25:32.077Z,7.57
2022-11-17T11:28:49.074Z,7.62
2022-11-17T11:32:05.506Z,7.71
2022-11-17T11:35:26.964Z,8.11
2022-11-17T11:38:43.299Z,8.27
2022-11-17T11:42:08.124Z,8.30
2022-11-17T11:45:19.836Z,8.43
2022-11-17T11:48:25.093Z,8.56
2022-11-17T11:51:30.047Z,8.67
2022-11-17T11:54:40.125Z,8.61
2022-11-17T11:57:49.513Z,8.50
2022-11-17T12:00:53.437Z,8.43
2022-11-17T12:04:02.826Z,8.32
2022-11-17T12:07:15.387Z,8.44
2022-11-17T12:10:22.112Z,8.46
2022-11-17T12:13:26.932Z,8.41
2022-11-17T12:16:32.171Z,8.42
2022-11-17T12:19:59.631Z,8.43
2022-11-17T12:23:08.803Z,8.41
2022-11-17T12:26:21.545Z,8.29
2022-11-17T12:29:28.984Z,8.30
2022-11-17T12:32:50.408Z,8.29
2022-11-17T12:36:11.322Z,8.34
2022-11-17T12:39:28.900Z,8.33
2022-11-17T12:42:32.216Z,8.33
2022-11-17T12:45:53.912Z,8.34
2022-11-17T12:48:59.503Z,8.31
2022-11-17T12:52:06.966Z,8.29
2022-11-17T12:55:17.488Z,8.25
2022-11-17T12:58:23.983Z,8.23
2022-11-17T13:01:34.008Z,8.25
2022-11-17T13:04:46.442Z,8.19
2022-11-17T13:07:52.123Z,8.08
2022-11-17T13:11:03.826Z,8.02
2022-11-17T13:14:09.530Z,7.98
2022-11-17T13:17:13.618Z,7.90
2022-11-17T13:20:20.191Z,7.84
2022-11-17T13:23:23.960Z,7.75
2022-11-17T13:26:27.571Z,7.72
2022-11-17T13:29:30.534Z,7.74
2022-11-17T13:32:35.255Z,7.62
2022-11-17T13:35:38.178Z,7.63
2022-11-17T13:38:47.529Z,7.57
2022-11-17T13:41:50.840Z,7.57
2022-11-17T13:44:54.986Z,7.52
2022-11-17T13:47:59.482Z,7.51
2022-11-17T13:51:35.009Z,7.38
2022-11-17T13:54:37.995Z,7.35
2022-11-17T13:57:40.792Z,7.29
2022-11-17T14:00:51.380Z,7.26
2022-11-17T14:04:18.272Z,7.29
2022-11-17T14:07:30.517Z,7.26
2022-11-17T14:10:34.822Z,7.24
2022-11-17T14:13:39.356Z,7.22
2022-11-17T14:16:42.637Z,7.17
2022-11-17T14:19:47.800Z,7.16
2022-11-17T14:23:01.167Z,7.14
2022-11-17T14:26:04.056Z,7.17
2022-11-17T14:29:06.873Z,7.14
2022-11-17T14:32:09.537Z,7.14
2022-11-17T14:35:15.329Z,7.15
2022-11-17T14:38:20.052Z,7.16
2022-11-17T14:41:22.754Z,7.15
2022-11-17T14:44:25.471Z,7.20
2022-11-17T14:47:28.181Z,7.20
2022-11-17T14:50:32.332Z,7.22
2022-11-17T14:53:39.273Z,7.24
2022-11-17T14:56:44.511Z,7.26
2022-11-17T14:59:47.466Z,7.28
2022-11-17T15:02:51.174Z,7.24
2022-11-17T15:05:55.316Z,7.27
2022-11-17T15:08:58.986Z,7.27
2022-11-17T15:12:01.686Z,7.30
2022-11-17T15:15:05.069Z,7.33
2022-11-17T15:18:07.771Z,7.29
2022-11-17T15:21:12.069Z,7.32
2022-11-17T15:24:15.111Z,7.32
2022-11-17T15:27:18.190Z,7.22
2022-11-17T15:30:21.103Z,7.22
2022-11-17T15:33:23.836Z,7.15
2022-11-17T15:36:27.853Z,7.14
2022-11-17T15:39:30.849Z,7.10
2022-11-17T15:42:33.548Z,7.09
2022-11-17T15:45:37.781Z,7.08
2022-11-17T15:48:42.959Z,7.04
2022-11-17T15:51:47.098Z,7.01
2022-11-17T15:54:50.128Z,7.04
2022-11-17T15:57:53.722Z,7.02
2022-11-17T16:01:07.295Z,6.97
2022-11-17T16:04:10.890Z,6.97
2022-11-17T16:07:15.007Z,6.94
2022-11-17T16:10:17.894Z,6.92
2022-11-17T16:13:20.615Z,6.90
2022-11-17T16:16:23.908Z,6.95
2022-11-17T16:19:26.635Z,6.94
2022-11-17T16:22:30.718Z,6.97
2022-11-17T16:25:33.411Z,6.95
2022-11-17T16:28:36.214Z,7.00
2022-11-17T16:31:39.729Z,7.07
2022-11-17T16:34:43.586Z,7.06
2022-11-17T16:37:47.622Z,7.08
2022-11-17T16:40:50.378Z,7.14
2022-11-17T16:43:55.842Z,7.23
2022-11-17T16:46:58.866Z,7.24
2022-11-17T16:50:02.136Z,7.22
2022-11-17T16:53:06.397Z,7.29
2022-11-17T16:56:10.018Z,7.31
2022-11-17T16:59:13.164Z,7.39
2022-11-17T17:02:16.081Z,7.34
2022-11-17T17:05:19.225Z,7.43
2022-11-17T17:08:23.395Z,7.45
2022-11-17T17:11:27.322Z,7.31
2022-11-17T17:14:30.105Z,7.26
2022-11-17T17:17:32.865Z,7.29
2022-11-17T17:20:35.606Z,7.34
2022-11-17T17:23:39.759Z,7.36
2022-11-17T17:26:42.774Z,7.35
2022-11-17T17:29:45.496Z,7.38
2022-11-17T17:32:48.998Z,7.35
2022-11-17T17:35:51.949Z,7.27
2022-11-17T17:38:57.193Z,7.27
2022-11-17T17:41:59.884Z,7.27
2022-11-17T17:45:02.716Z,7.28
2022-11-17T17:48:05.684Z,7.27
2022-11-17T17:51:09.255Z,7.25
2022-11-17T17:54:17.139Z,7.29
2022-11-17T17:57:19.975Z,7.28
2022-11-17T18:00:22.889Z,7.26
2022-11-17T18:03:25.933Z,7.26
2022-11-17T18:06:29.095Z,7.26
2022-11-17T18:09:33.547Z,7.28
2022-11-17T18:12:36.236Z,7.30
2022-11-17T18:15:40.508Z,7.18
2022-11-17T18:18:45.296Z,7.18
2022-11-17T18:21:48.096Z,7.09
2022-11-17T18:24:55.933Z,7.16
2022-11-17T18:28:01.041Z,7.14
2022-11-17T18:31:04.421Z,6.92
2022-11-17T18:34:08.976Z,6.90
2022-11-17T18:37:11.866Z,6.92
2022-11-17T18:40:16.462Z,6.92
2022-11-17T18:43:19.900Z,6.99
2022-11-17T18:46:23.415Z,6.97
2022-11-17T18:49:26.327Z,6.90
2022-11-17T18:52:31.506Z,6.74
2022-11-17T18:55:35.946Z,6.86
2022-11-17T18:58:39.004Z,6.93
2022-11-17T19:01:42.954Z,6.95
2022-11-17T19:04:46.170Z,7.00
2022-11-17T19:07:49.541Z,7.10
2022-11-17T19:10:54.405Z,7.14
2022-11-17T19:13:57.364Z,7.20
2022-11-17T19:17:00.152Z,7.21
2022-11-17T19:20:06.805Z,7.21
2022-11-17T19:23:09.530Z,7.24
2022-11-17T19:26:14.605Z,7.23
2022-11-17T19:29:17.950Z,7.25
2022-11-17T19:32:21.208Z,7.26
2022-11-17T19:35:24.234Z,7.23
2022-11-17T19:38:29.917Z,7.29
2022-11-17T19:41:35.136Z,7.26
2022-11-17T19:44:37.882Z,7.34
2022-11-17T19:47:41.457Z,7.28
2022-11-17T19:50:44.341Z,7.25
2022-11-17T19:53:47.654Z,7.19
2022-11-17T19:56:51.713Z,7.10
2022-11-17T19:59:54.573Z,7.04
2022-11-17T20:02:57.292Z,7.05
2022-11-17T20:06:00.550Z,7.05
2022-11-17T20:09:06.711Z,6.95
2022-11-17T20:12:10.831Z,6.96
2022-11-17T20:15:33.046Z,6.83
2022-11-17T20:18:36.341Z,6.86
2022-11-17T20:21:39.084Z,6.76
2022-11-17T20:24:42.094Z,6.59
2022-11-17T20:27:46.398Z,6.52
2022-11-17T20:30:49.166Z,6.45
2022-11-17T20:33:52.250Z,6.40
2022-11-17T20:36:54.926Z,6.40
2022-11-17T20:39:57.916Z,6.41
2022-11-17T20:43:02.023Z,6.44
2022-11-17T20:46:05.230Z,6.50
2022-11-17T20:49:08.006Z,6.56
2022-11-17T20:52:13.546Z,6.62
2022-11-17T20:55:17.145Z,6.62
2022-11-17T20:58:21.675Z,6.64
2022-11-17T21:01:24.857Z,6.64
2022-11-17T21:04:27.668Z,6.66
2022-11-17T21:07:30.429Z,6.69
2022-11-17T21:10:33.299Z,6.67
2022-11-17T21:13:37.757Z,6.66
2022-11-17T21:16:41.381Z,6.63
2022-11-17T21:19:45.210Z,6.63
2022-11-17T21:22:47.956Z,6.45
2022-11-17T21:25:50.736Z,6.60
2022-11-17T21:28:55.209Z,6.60
2022-11-17T21:31:58.165Z,6.62
2022-11-17T21:35:01.379Z,6.59
2022-11-17T21:38:04.207Z,6.59
2022-11-17T21:41:07.998Z,6.53
2022-11-17T21:44:12.977Z,6.52
2022-11-17T21:47:15.709Z,6.44
2022-11-17T21:50:18.615Z,6.45
2022-11-17T21:53:21.367Z,6.38
2022-11-17T21:56:26.626Z,6.46
2022-11-17T21:59:31.058Z,6.51
2022-11-17T22:02:33.767Z,6.49
2022-11-17T22:05:36.588Z,6.57
2022-11-17T22:08:40.456Z,6.60
2022-11-17T22:11:43.309Z,6.67
2022-11-17T22:14:47.525Z,6.66
2022-11-17T22:17:50.233Z,6.63
2022-11-17T22:20:52.969Z,6.67
2022-11-17T22:23:55.919Z,6.68
2022-11-17T22:26:59.152Z,6.69
2022-11-17T22:30:03.383Z,6.69
2022-11-17T22:33:06.070Z,6.67
2022-11-17T22:36:09.147Z,6.67
2022-11-17T22:39:11.899Z,6.69
2022-11-17T22:42:15.475Z,6.73
2022-11-17T22:45:19.515Z,6.72
2022-11-17T22:48:22.266Z,6.71
2022-11-17T22:51:42.866Z,6.72
2022-11-17T22:54:46.057Z,6.75
2022-11-17T22:57:48.802Z,6.74
2022-11-17T23:00:53.115Z,6.76
2022-11-17T23:03:55.913Z,6.75
2022-11-17T23:06:58.833Z,6.72
2022-11-17T23:10:01.650Z,6.75
2022-11-17T23:13:04.412Z,6.75
2022-11-17T23:16:09.099Z,6.78
2022-11-17T23:19:15.299Z,6.79
2022-11-17T23:22:18.645Z,6.70
2022-11-17T23:25:21.987Z,6.73
2022-11-17T23:28:24.708Z,6.73
2022-11-17T23:31:28.923Z,6.71
2022-11-17T23:34:31.627Z,6.73
2022-11-17T23:37:34.368Z,6.77
2022-11-17T23:40:37.119Z,6.73
2022-11-17T23:43:40.197Z,6.72
2022-11-17T23:46:44.440Z,6.77
2022-11-17T23:49:47.246Z,6.82
2022-11-17T23:52:49.910Z,6.90
2022-11-17T23:55:55.769Z,6.92
2022-11-17T23:58:58.976Z,6.93
